Time;durP1;ratioP1;P1;durP2;ratioP2;P2;SDS_P1;SDS_P2;PMS_P1;PMS_P2;Temp;Humidity;BMP_temperature;BMP_pressure;BME280_temperature;BME280_humidity;BME280_pressure;Samples;Min_cycle;Max_cycle;Signal;HPM_P1;HPM_P2
2021/12/20 00:01:26;;;;;;;5.80;1.25;;;;;;;13.48;52.00;102997.66;5006473;28;20029;-62
2021/12/20 00:03:52;;;;;;;6.72;1.33;;;;;;;13.06;52.45;102994.69;5006788;28;20077;-64
2021/12/20 00:06:17;;;;;;;6.43;1.42;;;;;;;12.99;52.39;103007.03;4970672;28;20034;-61
2021/12/20 00:08:42;;;;;;;12.27;1.88;;;;;;;13.04;52.06;103007.03;4986125;28;20057;-63
2021/12/20 00:11:08;;;;;;;11.20;2.15;;;;;;;13.48;51.24;102995.72;4971038;28;20030;-63
2021/12/20 00:13:33;;;;;;;12.98;1.67;;;;;;;13.39;50.84;102995.41;4968801;28;20078;-62
2021/12/20 00:15:59;;;;;;;8.57;1.90;;;;;;;13.67;50.32;102985.00;5003332;28;20031;-63
2021/12/20 00:18:25;;;;;;;13.02;2.10;;;;;;;13.99;49.49;102988.66;5003557;28;20053;-63
2021/12/20 00:20:50;;;;;;;11.07;1.98;;;;;;;13.50;50.11;102996.25;5006148;28;20038;-61
2021/12/20 00:23:15;;;;;;;15.00;2.08;;;;;;;13.19;49.25;102995.31;4986881;28;20033;-64
2021/12/20 00:25:42;;;;;;;16.60;2.33;;;;;;;12.40;49.85;102989.56;5005904;28;20055;-61
2021/12/20 00:28:07;;;;;;;20.73;2.85;;;;;;;12.92;47.11;103001.75;4961072;28;20107;-64
2021/12/20 00:30:35;;;;;;;17.42;3.22;;;;;;;12.54;47.15;102994.63;5010470;28;20086;-64
2021/12/20 00:33:00;;;;;;;13.82;2.70;;;;;;;12.80;46.60;102992.88;4996498;28;20106;-65
2021/12/20 00:35:26;;;;;;;16.02;2.72;;;;;;;12.61;46.77;102989.72;4996101;28;20034;-63
2021/12/20 00:40:37;;;;;;;19.25;3.13;;;;;;;13.02;45.81;102976.22;5011181;28;20053;-62
2021/12/20 00:43:03;;;;;;;19.90;2.77;;;;;;;13.55;45.26;102985.28;4996130;28;20026;-62
2021/12/20 00:45:31;;;;;;;15.95;2.42;;;;;;;13.65;44.91;102980.88;5013146;28;20265;-64
2021/12/20 00:47:57;;;;;;;13.38;2.47;;;;;;;12.98;45.93;102991.59;5012743;28;20022;-61
2021/12/20 00:50:24;;;;;;;13.35;1.95;;;;;;;13.35;45.80;102983.28;4996079;28;20030;-63
2021/12/20 00:52:50;;;;;;;13.82;2.22;;;;;;;13.18;46.07;102983.44;5012758;28;20032;-62
2021/12/20 00:55:18;;;;;;;17.35;2.47;;;;;;;13.59;45.64;102967.06;5013265;28;20053;-63
2021/12/20 00:57:44;;;;;;;16.83;2.35;;;;;;;13.27;46.47;102971.91;4995347;28;20035;-64
2021/12/20 01:00:11;;;;;;;17.67;3.10;;;;;;;13.87;45.52;102970.44;4995844;28;20064;-64
2021/12/20 01:02:37;;;;;;;12.35;1.98;;;;;;;14.00;45.37;102965.47;5012588;28;20034;-63
2021/12/20 01:05:04;;;;;;;20.30;2.63;;;;;;;13.65;46.35;102972.59;4995762;28;20030;-64
2021/12/20 01:07:30;;;;;;;13.63;2.88;;;;;;;13.99;45.68;102978.44;5012878;28;20038;-63
2021/12/20 01:10:02;;;;;;;17.65;2.25;;;;;;;14.08;45.87;102978.75;4978984;28;20042;-63
2021/12/20 01:12:33;;;;;;;16.52;2.30;;;;;;;13.86;46.24;102966.03;4996925;28;20057;-64
2021/12/20 01:15:00;;;;;;;17.90;2.88;;;;;;;14.12;45.61;102961.34;5012443;28;20062;-62
2021/12/20 01:17:26;;;;;;;14.10;2.03;;;;;;;14.10;44.93;102960.00;4995519;28;20026;-64
2021/12/20 01:19:52;;;;;;;19.35;2.60;;;;;;;13.55;44.83;102963.22;4994940;28;20035;-62
2021/12/20 01:22:18;;;;;;;15.13;2.85;;;;;;;13.91;44.19;102967.97;5012391;28;20038;-65
2021/12/20 01:24:43;;;;;;;15.93;2.60;;;;;;;13.86;44.14;102956.94;5012216;28;20030;-62
2021/12/20 01:27:09;;;;;;;17.38;3.03;;;;;;;13.50;44.69;102971.47;4957087;28;1094585;-62
2021/12/20 01:29:34;;;;;;;17.58;2.50;;;;;;;13.59;44.81;102964.31;4996024;28;20679;-65
2021/12/20 01:31:59;;;;;;;17.55;2.47;;;;;;;14.02;44.17;102971.56;5013135;28;20036;-63
2021/12/20 01:34:25;;;;;;;20.75;3.42;;;;;;;14.01;43.96;102961.63;5013415;28;20031;-62
2021/12/20 01:36:50;;;;;;;15.80;2.60;;;;;;;13.96;44.12;102955.00;4995743;28;20081;-64
2021/12/20 01:39:16;;;;;;;17.42;2.65;;;;;;;14.25;43.41;102962.75;4996066;28;20036;-61
2021/12/20 01:41:43;;;;;;;20.13;2.80;;;;;;;14.40;43.46;102952.81;5011648;28;20033;-63
2021/12/20 01:44:09;;;;;;;16.30;2.95;;;;;;;14.18;43.80;102964.94;4995668;28;20030;-64
2021/12/20 01:46:35;;;;;;;19.73;2.72;;;;;;;13.82;44.11;102964.91;5013072;28;20022;-63
2021/12/20 01:49:04;;;;;;;15.15;2.53;;;;;;;13.61;44.41;102958.53;4995528;28;20037;-62
2021/12/20 01:54:15;;;;;;;21.27;2.67;;;;;;;13.22;45.01;102968.03;5013287;28;20873;-64
2021/12/20 01:56:43;;;;;;;;;;;;;;;13.86;44.20;102966.03;5013440;28;20037;-63
2021/12/20 01:59:09;;;;;;;12.38;2.60;;;;;;;13.56;44.53;102973.13;5012843;28;19914;-64
2021/12/20 02:01:35;;;;;;;23.83;2.95;;;;;;;13.51;44.83;102972.31;5013034;28;20026;-64
2021/12/20 02:04:05;;;;;;;16.67;2.15;;;;;;;13.38;45.29;102963.44;5012377;28;20026;-62
2021/12/20 02:06:35;;;;;;;19.20;3.33;;;;;;;13.31;45.40;102965.56;4980043;28;20044;-61
2021/12/20 02:09:07;;;;;;;17.88;2.42;;;;;;;13.47;45.22;102960.97;4995052;28;20026;-62
2021/12/20 02:11:34;;;;;;;14.75;2.45;;;;;;;13.76;44.57;102958.56;5012567;28;20018;-64
2021/12/20 02:13:59;;;;;;;20.15;3.40;;;;;;;13.35;45.38;102963.97;5012314;28;20050;-63
2021/12/20 02:16:25;;;;;;;22.30;2.90;;;;;;;13.04;45.91;102958.34;4995524;28;20034;-65
2021/12/20 02:18:50;;;;;;;18.80;2.60;;;;;;;13.48;45.28;102951.63;4995116;28;20033;-64
2021/12/20 02:21:16;;;;;;;17.65;2.60;;;;;;;12.91;46.16;102949.72;5012541;28;20037;-66
2021/12/20 02:23:42;;;;;;;15.70;2.00;;;;;;;12.08;45.11;102960.16;4995175;28;20030;-64
2021/12/20 02:26:11;;;;;;;9.07;1.98;;;;;;;12.26;45.59;102958.91;5012047;28;20062;-62
2021/12/20 02:28:42;;;;;;;15.63;2.15;;;;;;;12.51;44.60;102958.28;4995080;28;20061;-63
2021/12/20 02:39:17;;;;;;;17.20;2.78;;;;;;;13.30;43.45;102947.41;5012365;28;20044;-64
2021/12/20 02:41:42;;;;;;;14.40;2.50;;;;;;;13.49;43.14;102939.50;4994936;28;20034;-62
2021/12/20 02:44:16;;;;;;;18.55;2.67;;;;;;;13.81;42.74;102949.50;4994584;28;20109;-61
2021/12/20 02:49:09;;;;;;;12.00;1.98;;;;;;;13.95;43.21;102941.47;5011550;28;20049;-63
2021/12/20 02:51:35;;;;;;;17.50;2.30;;;;;;;13.58;43.63;102942.53;4994505;28;20050;-62
2021/12/20 02:54:04;;;;;;;14.07;2.40;;;;;;;13.78;43.49;102937.06;5011638;28;20029;-64
2021/12/20 02:56:29;;;;;;;9.75;2.30;;;;;;;13.53;43.91;102937.03;4994637;28;20057;-62
2021/12/20 02:58:55;;;;;;;16.00;2.63;;;;;;;13.79;43.73;102938.75;5011445;28;20034;-65
2021/12/20 03:01:21;;;;;;;12.95;2.28;;;;;;;13.69;43.94;102940.66;5011895;28;20034;-62
2021/12/20 03:03:50;;;;;;;15.30;1.98;;;;;;;13.55;44.33;102935.66;4994593;28;20034;-64
2021/12/20 03:06:23;;;;;;;19.00;2.92;;;;;;;13.78;44.32;102941.75;5011633;28;20026;-62
2021/12/20 03:08:51;;;;;;;17.15;2.58;;;;;;;13.12;45.55;102940.44;5011683;28;20033;-63
2021/12/20 03:11:17;;;;;;;14.50;2.45;;;;;;;12.88;45.83;102935.41;5011266;28;20022;-61
2021/12/20 03:13:46;;;;;;;15.85;2.10;;;;;;;13.16;45.69;102941.56;5011760;28;20078;-62
2021/12/20 03:16:11;;;;;;;16.90;2.55;;;;;;;13.37;45.42;102947.19;5011337;28;20040;-63
2021/12/20 03:18:37;;;;;;;15.57;2.58;;;;;;;13.18;45.28;102935.78;5011570;28;20101;-62
2021/12/20 03:21:02;;;;;;;21.23;2.55;;;;;;;13.44;44.63;102936.72;4994155;28;20042;-62
2021/12/20 03:23:28;;;;;;;12.55;2.50;;;;;;;13.10;45.45;102939.88;4994327;28;20049;-60
2021/12/20 03:25:53;;;;;;;15.88;3.03;;;;;;;12.88;45.62;102945.56;4994617;28;20034;-63
2021/12/20 03:28:18;;;;;;;20.80;2.92;;;;;;;13.33;44.57;102941.41;5011066;28;20066;-64
2021/12/20 03:30:44;;;;;;;19.35;3.08;;;;;;;12.98;44.81;102939.28;4994292;28;20034;-62
2021/12/20 03:33:10;;;;;;;20.80;2.55;;;;;;;12.86;44.38;102937.59;4994009;28;20027;-62
2021/12/20 03:35:36;;;;;;;19.10;2.72;;;;;;;12.91;44.15;102945.03;4994371;28;20038;-63
2021/12/20 03:38:01;;;;;;;17.80;2.08;;;;;;;12.98;43.88;102939.28;5011077;28;20057;-64
2021/12/20 03:40:27;;;;;;;10.82;2.20;;;;;;;13.09;44.18;102932.72;4994335;28;20030;-61
2021/12/20 03:42:52;;;;;;;11.82;2.17;;;;;;;13.08;43.92;102936.59;5010880;28;20030;-64
2021/12/20 03:45:17;;;;;;;19.23;2.90;;;;;;;13.38;43.27;102933.13;4993998;28;20030;-62
2021/12/20 03:47:44;;;;;;;16.50;2.35;;;;;;;13.34;43.27;102928.44;5011423;28;20027;-64
2021/12/20 03:50:11;;;;;;;16.73;2.65;;;;;;;13.40;43.30;102922.66;5011094;28;20093;-61
2021/12/20 03:52:38;;;;;;;22.50;3.15;;;;;;;13.89;42.25;102932.41;4978398;28;20029;-61
2021/12/20 03:55:06;;;;;;;17.88;2.58;;;;;;;13.92;41.96;102925.53;4978161;28;20030;-64
2021/12/20 03:57:31;;;;;;;17.55;2.55;;;;;;;14.16;42.02;102923.03;5011220;28;20145;-64
2021/12/20 03:59:57;;;;;;;14.32;2.70;;;;;;;13.69;42.64;102926.88;5011501;28;20043;-62
2021/12/20 04:02:23;;;;;;;17.33;2.65;;;;;;;14.04;42.27;102933.50;4993629;28;20071;-62
2021/12/20 04:04:48;;;;;;;15.55;3.10;;;;;;;13.57;42.87;102935.41;4996052;28;20032;-61
2021/12/20 04:07:13;;;;;;;17.98;2.50;;;;;;;13.60;43.01;102932.91;5014590;28;20022;-64
2021/12/20 04:09:39;;;;;;;19.30;2.92;;;;;;;13.38;43.62;102922.13;4981615;28;20499;-61
2021/12/20 04:12:04;;;;;;;20.33;2.72;;;;;;;13.35;43.59;102928.16;5014397;28;20102;-61
2021/12/20 04:14:30;;;;;;;13.45;2.42;;;;;;;13.25;43.87;102930.84;4997625;28;20098;-64
2021/12/20 04:16:55;;;;;;;18.02;2.90;;;;;;;13.47;43.60;102929.84;5014904;28;20120;-62
2021/12/20 04:19:21;;;;;;;16.60;2.45;;;;;;;13.85;43.17;102934.03;4997080;28;20121;-63
2021/12/20 04:21:46;;;;;;;16.83;2.78;;;;;;;13.90;43.20;102928.56;5014541;28;20026;-62
2021/12/20 04:24:11;;;;;;;19.13;3.00;;;;;;;13.74;43.52;102930.47;4980854;28;20026;-61
2021/12/20 04:26:37;;;;;;;20.65;3.17;;;;;;;13.86;43.41;102927.44;4997356;28;20042;-64
2021/12/20 04:29:02;;;;;;;14.82;2.97;;;;;;;13.81;43.43;102937.63;5014576;28;20042;-64
2021/12/20 04:31:28;;;;;;;22.95;2.97;;;;;;;13.76;43.55;102935.69;4997165;28;20053;-65
2021/12/20 04:33:54;;;;;;;17.40;2.90;;;;;;;13.14;44.57;102932.75;4997282;28;20053;-63
2021/12/20 04:36:19;;;;;;;15.40;2.67;;;;;;;13.48;44.04;102926.81;5014028;28;20030;-63
2021/12/20 04:38:45;;;;;;;15.25;2.80;;;;;;;13.04;45.27;102928.03;4997359;28;20038;-62
2021/12/20 04:41:10;;;;;;;15.43;2.40;;;;;;;13.52;44.33;102930.69;4980244;28;20035;-63
2021/12/20 04:43:36;;;;;;;15.10;2.88;;;;;;;13.93;43.60;102922.44;5014240;28;20102;-64
2021/12/20 04:46:02;;;;;;;13.45;2.70;;;;;;;13.95;43.67;102917.50;5014308;28;20038;-65
2021/12/20 04:48:27;;;;;;;18.20;2.10;;;;;;;13.92;43.79;102918.06;4996493;28;20042;-64
2021/12/20 04:50:53;;;;;;;12.52;2.33;;;;;;;13.60;44.14;102935.66;5014365;28;20065;-62
2021/12/20 04:53:19;;;;;;;15.70;2.78;;;;;;;13.60;44.05;102930.16;5013766;28;20037;-64
2021/12/20 04:59:07;;;;;;;14.73;2.60;;;;;;;13.47;44.35;102930.66;5011590;28;20099;-63
2021/12/20 05:01:33;;;;;;;18.70;3.75;;;;;;;13.59;44.13;102933.19;4979891;28;20133;-62
2021/12/20 05:03:58;;;;;;;21.50;2.72;;;;;;;13.91;43.64;102923.84;4996500;28;20085;-63
2021/12/20 05:06:23;;;;;;;18.00;2.50;;;;;;;13.30;44.24;102935.53;4980602;28;20026;-63
2021/12/20 05:08:51;;;;;;;16.35;2.88;;;;;;;13.24;44.20;102924.53;4996233;28;20029;-65
2021/12/20 05:11:17;;;;;;;;;;;;;;;12.48;43.67;102920.31;4997624;28;20030;-61
2021/12/20 05:13:42;;;;;;;12.70;2.38;;;;;;;12.66;44.31;102923.72;5013582;28;19948;-62
2021/12/20 05:16:08;;;;;;;15.23;2.05;;;;;;;12.45;44.68;102936.50;5013459;28;20114;-62
2021/12/20 05:18:33;;;;;;;19.10;2.80;;;;;;;12.21;44.55;102936.06;5013788;28;20037;-64
2021/12/20 05:20:58;;;;;;;13.95;2.38;;;;;;;12.49;44.04;102938.47;4979741;28;20026;-64
2021/12/20 05:23:25;;;;;;;13.20;2.92;;;;;;;13.05;43.74;102937.13;4996515;28;20034;-64
2021/12/20 05:25:50;;;;;;;13.00;2.50;;;;;;;13.25;42.99;102939.09;4996272;28;20022;-64
2021/12/20 05:28:16;;;;;;;17.08;2.30;;;;;;;12.75;44.55;102943.31;4980204;28;20149;-61
2021/12/20 05:30:42;;;;;;;15.43;2.05;;;;;;;12.95;44.36;102945.31;5013144;28;20034;-63
2021/12/20 05:33:08;;;;;;;13.88;2.60;;;;;;;13.30;43.67;102941.06;4996018;28;20103;-62
2021/12/20 05:35:33;;;;;;;17.58;2.60;;;;;;;13.04;44.31;102936.31;5013432;28;20046;-63
2021/12/20 05:37:59;;;;;;;19.60;2.95;;;;;;;12.97;44.77;102948.66;5012929;28;20383;-64
2021/12/20 05:40:26;;;;;;;22.80;3.08;;;;;;;12.86;45.50;102943.09;5013369;28;20116;-63
2021/12/20 05:42:52;;;;;;;14.32;2.60;;;;;;;13.33;44.55;102943.31;4995454;28;20030;-63
2021/12/20 05:45:19;;;;;;;21.08;3.33;;;;;;;12.99;45.25;102952.78;4996160;28;20034;-62
2021/12/20 05:47:45;;;;;;;17.67;2.92;;;;;;;13.10;45.09;102948.16;5012689;28;20034;-64
2021/12/20 05:50:12;;;;;;;19.63;3.33;;;;;;;13.23;44.58;102942.16;4979859;28;20030;-66
2021/12/20 05:52:39;;;;;;;17.05;3.00;;;;;;;12.64;45.49;102950.66;4996022;28;20040;-63
2021/12/20 05:55:06;;;;;;;16.95;2.92;;;;;;;12.50;46.01;102956.66;5012730;28;20570;-63
2021/12/20 05:57:32;;;;;;;15.32;2.28;;;;;;;12.68;43.46;102946.31;5012737;28;20034;-62
2021/12/20 05:59:58;;;;;;;16.35;2.28;;;;;;;13.36;41.51;102945.53;5012412;28;20076;-63
2021/12/20 06:02:24;;;;;;;16.70;2.60;;;;;;;12.84;42.59;102949.97;5012824;28;20026;-63
2021/12/20 06:04:51;;;;;;;13.25;2.33;;;;;;;12.49;43.26;102962.41;4994975;28;20034;-64
2021/12/20 06:07:20;;;;;;;11.98;1.88;;;;;;;12.76;42.56;102948.56;5012580;28;20053;-62
2021/12/20 06:09:47;;;;;;;15.02;2.55;;;;;;;12.75;43.08;102952.38;5012322;28;20041;-63
2021/12/20 06:12:13;;;;;;;21.42;3.72;;;;;;;13.29;42.10;102945.75;5012892;28;20727;-63
2021/12/20 06:14:38;;;;;;;10.48;1.70;;;;;;;13.68;41.73;102958.28;5012519;28;20026;-64
2021/12/20 06:17:03;;;;;;;16.02;2.30;;;;;;;13.93;41.52;102960.25;4994835;28;20060;-62
2021/12/20 06:19:29;;;;;;;16.25;2.25;;;;;;;13.28;42.37;102957.84;4995428;28;20081;-65
2021/12/20 06:21:55;;;;;;;11.63;2.20;;;;;;;12.08;41.19;102965.66;4978485;28;20030;-64
2021/12/20 06:24:21;;;;;;;13.32;2.05;;;;;;;12.67;42.24;102961.97;4995189;28;20018;-64
2021/12/20 06:26:46;;;;;;;10.65;1.90;;;;;;;12.52;42.01;102959.97;4994145;28;20053;-63
2021/12/20 06:29:12;;;;;;;10.80;2.03;;;;;;;12.48;41.76;102958.00;5012392;28;20030;-63
2021/12/20 06:31:37;;;;;;;12.60;1.98;;;;;;;12.68;40.64;102960.88;4978937;28;20043;-62
2021/12/20 06:34:03;;;;;;;7.53;1.73;;;;;;;12.02;40.73;102960.38;5011832;28;20034;-62
2021/12/20 06:36:30;;;;;;;9.60;1.67;;;;;;;12.37;40.45;102956.28;4962617;28;20034;-62
2021/12/20 06:38:57;;;;;;;18.80;2.13;;;;;;;13.43;39.14;102944.16;4995018;28;20026;-63
2021/12/20 06:41:23;;;;;;;17.20;2.00;;;;;;;13.01;39.33;102952.50;5012162;28;20081;-63
2021/12/20 06:43:49;;;;;;;13.30;1.90;;;;;;;12.96;40.02;102955.25;5011654;28;20296;-64
2021/12/20 06:46:17;;;;;;;11.70;2.10;;;;;;;13.09;40.56;102964.94;4978952;28;20030;-64
2021/12/20 06:48:42;;;;;;;12.07;1.35;;;;;;;11.97;41.99;102980.41;5012234;28;20030;-64
2021/12/20 06:51:08;;;;;;;8.60;1.70;;;;;;;12.59;40.35;102972.66;4994484;28;20080;-61
2021/12/20 06:53:33;;;;;;;8.32;1.50;;;;;;;13.38;39.15;102957.13;4962630;28;20077;-63
2021/12/20 06:55:59;;;;;;;11.07;1.95;;;;;;;12.83;39.67;102959.31;5011488;28;20086;-60
2021/12/20 06:58:24;;;;;;;11.75;1.77;;;;;;;12.98;39.38;102964.06;4994641;28;20093;-63
2021/12/20 07:00:52;;;;;;;8.15;1.42;;;;;;;12.14;41.91;102966.53;5011102;28;20065;-62
2021/12/20 07:03:17;;;;;;;14.43;2.22;;;;;;;13.39;40.61;102972.53;5011625;28;20030;-62
2021/12/20 07:05:43;;;;;;;15.25;1.90;;;;;;;13.65;40.55;102964.31;5011747;28;20099;-63
2021/12/20 07:08:08;;;;;;;14.05;2.15;;;;;;;13.86;40.19;102959.69;5011420;28;20041;-64
2021/12/20 07:10:33;;;;;;;10.10;2.00;;;;;;;13.13;40.77;102961.38;4994490;28;20084;-66
2021/12/20 07:12:59;;;;;;;9.65;1.58;;;;;;;13.71;40.22;102966.00;4994242;28;20875;-65
2021/12/20 07:15:25;;;;;;;11.82;2.30;;;;;;;12.88;41.71;102968.44;5011822;28;20034;-62
2021/12/20 07:17:51;;;;;;;9.18;1.95;;;;;;;13.01;42.24;102966.28;4994509;28;20038;-63
2021/12/20 07:20:17;;;;;;;13.90;1.73;;;;;;;13.18;41.88;102969.66;5011615;28;20040;-63
2021/12/20 07:22:42;;;;;;;13.05;2.10;;;;;;;12.84;42.69;102967.31;4994425;28;20034;-63
2021/12/20 07:25:08;;;;;;;10.95;1.83;;;;;;;12.03;44.82;102968.38;5011096;28;20034;-63
2021/12/20 07:27:34;;;;;;;9.20;1.42;;;;;;;12.33;44.10;102973.28;5011496;28;20054;-64
2021/12/20 07:30:00;;;;;;;13.38;1.50;;;;;;;13.61;41.88;102964.88;5011201;28;20026;-62
2021/12/20 07:32:25;;;;;;;8.52;1.40;;;;;;;13.66;41.39;102971.50;4994275;28;20026;-62
2021/12/20 07:34:51;;;;;;;9.27;1.38;;;;;;;13.25;42.79;102972.16;5011508;28;20030;-63
2021/12/20 07:37:17;;;;;;;13.55;1.70;;;;;;;13.43;42.00;102959.88;5011124;28;20090;-63
2021/12/20 07:39:42;;;;;;;11.20;1.65;;;;;;;14.22;40.84;102962.44;4980061;28;20060;-61
2021/12/20 07:42:09;;;;;;;9.15;1.42;;;;;;;14.12;40.96;102963.28;4998077;28;20034;-64
2021/12/20 07:44:35;;;;;;;18.27;2.17;;;;;;;14.26;40.70;102958.06;4998147;28;20100;-60
2021/12/20 07:47:00;;;;;;;8.02;2.10;;;;;;;14.10;40.88;102973.78;5014831;28;20082;-63
2021/12/20 07:49:25;;;;;;;9.52;1.60;;;;;;;14.01;40.84;102973.47;4998041;28;20030;-62
2021/12/20 07:51:53;;;;;;;8.85;1.55;;;;;;;14.01;41.49;102976.25;5015219;28;20054;-61
2021/12/20 07:54:19;;;;;;;14.07;1.95;;;;;;;14.06;40.71;102969.91;4997593;28;20033;-63
2021/12/20 07:56:45;;;;;;;8.90;1.98;;;;;;;14.34;40.67;102974.84;4997979;28;20033;-64
2021/12/20 07:59:10;;;;;;;8.68;1.60;;;;;;;14.51;40.79;102977.34;5014577;28;20085;-62
2021/12/20 08:01:35;;;;;;;10.10;1.60;;;;;;;13.73;41.58;102978.41;4997344;28;20031;-64
2021/12/20 08:04:02;;;;;;;14.65;1.83;;;;;;;14.22;40.71;102974.34;5014405;28;20034;-62
2021/12/20 08:06:27;;;;;;;14.02;2.00;;;;;;;13.22;42.40;102979.06;4997626;28;20042;-65
2021/12/20 08:08:52;;;;;;;9.63;1.88;;;;;;;13.50;42.41;102979.72;4997801;28;20037;-62
2021/12/20 08:11:18;;;;;;;10.93;1.77;;;;;;;13.70;41.88;102978.97;4997243;28;20026;-63
2021/12/20 08:13:46;;;;;;;12.48;2.22;;;;;;;13.91;41.50;102988.09;4997555;28;20022;-61
2021/12/20 08:16:13;;;;;;;12.15;1.63;;;;;;;13.33;42.58;102985.47;5014338;28;20023;-62
2021/12/20 08:18:40;;;;;;;10.40;1.80;;;;;;;14.02;41.28;102991.69;5014516;28;20022;-65
2021/12/20 08:21:05;;;;;;;8.32;1.60;;;;;;;14.44;40.94;102987.00;5014332;28;20030;-62
2021/12/20 08:23:31;;;;;;;12.23;1.65;;;;;;;14.14;40.90;102985.91;4981165;28;20073;-64
2021/12/20 08:25:57;;;;;;;12.43;1.77;;;;;;;14.26;41.25;102978.19;4997512;28;20053;-62
2021/12/20 08:28:23;;;;;;;8.85;2.10;;;;;;;14.51;40.87;102991.13;4980867;28;20053;-62
2021/12/20 08:30:48;;;;;;;10.25;1.92;;;;;;;14.50;40.73;102992.22;5014845;28;20026;-64
2021/12/20 08:33:14;;;;;;;11.80;1.92;;;;;;;13.86;41.63;102993.59;4997181;28;20113;-62
2021/12/20 08:35:40;;;;;;;13.77;3.50;;;;;;;13.94;41.50;102992.25;5014612;28;20041;-64
2021/12/20 08:38:06;;;;;;;10.93;2.42;;;;;;;13.87;41.88;102998.03;5014181;28;20038;-65
2021/12/20 08:40:31;;;;;;;11.18;2.38;;;;;;;14.06;41.47;102989.22;4997390;28;20037;-63
2021/12/20 08:42:56;;;;;;;8.55;2.35;;;;;;;13.56;41.72;102986.09;5014387;28;20034;-62
2021/12/20 08:45:22;;;;;;;10.27;1.73;;;;;;;14.10;41.14;102995.84;4996630;28;20034;-65
2021/12/20 08:47:47;;;;;;;10.63;2.17;;;;;;;14.13;40.65;102998.06;4997385;28;20038;-64
2021/12/20 08:50:16;;;;;;;14.85;2.13;;;;;;;13.43;41.58;102998.47;4995930;28;20030;-64
2021/12/20 08:52:42;;;;;;;8.60;1.85;;;;;;;13.37;42.03;102996.78;4996895;28;20018;-62
2021/12/20 08:55:09;;;;;;;9.00;2.50;;;;;;;12.10;44.63;103014.88;5013767;28;20030;-62
2021/12/20 08:57:34;;;;;;;14.60;2.05;;;;;;;12.53;43.31;103013.06;4996798;28;20102;-64
2021/12/20 09:00:02;;;;;;;12.52;2.13;;;;;;;12.35;44.16;103008.78;5014025;28;20042;-63
2021/12/20 09:02:27;;;;;;;12.27;2.08;;;;;;;12.66;43.96;103020.03;5013367;28;20086;-62
2021/12/20 09:04:53;;;;;;;5.97;1.55;;;;;;;12.66;43.73;103017.28;5013893;28;20030;-62
2021/12/20 09:07:18;;;;;;;9.57;1.80;;;;;;;13.49;42.45;103011.16;5013677;28;20037;-61
2021/12/20 09:09:46;;;;;;;12.93;2.13;;;;;;;13.52;42.11;103010.63;5013959;28;20030;-63
2021/12/20 09:12:14;;;;;;;11.85;2.28;;;;;;;13.45;42.20;103012.78;4996067;28;20030;-64
2021/12/20 09:14:40;;;;;;;14.13;2.25;;;;;;;12.91;43.71;103011.09;5012230;28;20057;-61
2021/12/20 09:17:06;;;;;;;9.57;1.85;;;;;;;12.91;43.58;103011.09;5013452;28;20030;-65
2021/12/20 09:19:34;;;;;;;10.52;2.03;;;;;;;12.37;45.03;103028.59;4985337;28;20054;-63
2021/12/20 09:22:00;;;;;;;8.57;1.58;;;;;;;12.28;45.18;103024.66;4989301;28;20030;-61
2021/12/20 09:24:25;;;;;;;12.90;2.17;;;;;;;12.14;45.81;103027.84;4986090;28;20053;-62
2021/12/20 09:26:50;;;;;;;11.80;1.83;;;;;;;12.50;45.83;103024.56;4977159;28;20034;-61
2021/12/20 09:29:16;;;;;;;8.90;2.08;;;;;;;12.99;44.76;103018.03;4979490;28;20045;-64
2021/12/20 09:31:42;;;;;;;7.80;2.05;;;;;;;13.05;45.07;103022.50;4979639;28;20034;-65
2021/12/20 09:34:08;;;;;;;6.57;1.50;;;;;;;12.54;45.96;103027.66;4976303;28;20090;-62
2021/12/20 09:36:33;;;;;;;10.32;1.65;;;;;;;13.22;45.00;103020.38;4991891;28;20026;-64
2021/12/20 09:39:00;;;;;;;7.22;1.50;;;;;;;13.04;45.17;103010.66;4957233;29;20032;-63
2021/12/20 09:44:05;;;;;;;10.73;1.58;;;;;;;12.43;46.16;103030.31;4973668;29;20039;-64
2021/12/20 09:46:31;;;;;;;13.18;1.98;;;;;;;12.57;46.57;103030.69;5003999;28;20090;-66
2021/12/20 09:48:57;;;;;;;12.48;1.95;;;;;;;12.95;45.88;103030.66;5008830;28;20030;-66
2021/12/20 09:51:23;;;;;;;11.87;1.50;;;;;;;12.39;47.19;103037.44;4978003;28;20023;-61
2021/12/20 09:53:49;;;;;;;10.75;2.20;;;;;;;12.79;45.96;103047.09;5004044;28;20520;-64
2021/12/20 09:56:17;;;;;;;8.00;1.88;;;;;;;13.09;45.50;103033.78;4999649;28;20046;-62
2021/12/20 09:58:42;;;;;;;8.50;1.52;;;;;;;12.94;45.95;103037.28;5003104;28;20054;-63
2021/12/20 10:01:12;;;;;;;11.35;1.85;;;;;;;12.72;46.38;103035.47;4998562;28;20022;-61
2021/12/20 10:03:38;;;;;;;5.93;1.50;;;;;;;13.11;45.84;103035.19;5002938;28;20029;-60
2021/12/20 10:06:05;;;;;;;8.10;1.70;;;;;;;12.43;47.19;103037.75;5002888;28;20030;-64
2021/12/20 10:08:33;;;;;;;10.17;1.90;;;;;;;12.86;46.55;103035.84;4985627;28;20032;-62
2021/12/20 10:11:16;;;;;;;9.95;1.55;;;;;;;12.93;46.45;103030.13;4983339;28;20305;-62
2021/12/20 10:13:42;;;;;;;9.55;1.70;;;;;;;12.80;46.95;103032.22;4997642;28;20053;-61
2021/12/20 10:16:20;;;;;;;7.72;1.52;;;;;;;12.48;47.64;103040.53;4998892;28;20086;-62
2021/12/20 10:18:47;;;;;;;7.35;1.40;;;;;;;12.31;47.37;103040.66;5001711;28;20030;-65
2021/12/20 10:21:13;;;;;;;10.52;1.60;;;;;;;13.18;46.49;103035.75;4978309;28;20052;-66
2021/12/20 10:23:41;;;;;;;10.27;1.80;;;;;;;13.61;45.59;103031.00;4997976;28;20456;-62
2021/12/20 10:26:20;;;;;;;7.97;1.77;;;;;;;13.94;44.50;103025.31;5001089;28;20030;-63
2021/12/20 10:28:49;;;;;;;11.00;1.50;;;;;;;13.38;44.96;103026.00;5005230;28;20023;-62
2021/12/20 10:31:17;;;;;;;10.38;1.90;;;;;;;13.44;44.81;103033.16;4999314;28;20089;-64
2021/12/20 10:34:02;;;;;;;15.93;1.85;;;;;;;13.79;44.42;103031.63;4980780;28;20051;-63
2021/12/20 10:36:28;;;;;;;12.60;1.60;;;;;;;14.72;42.92;103026.22;5001239;28;20083;-62
2021/12/20 10:38:56;;;;;;;13.63;1.40;;;;;;;14.68;41.83;103020.41;4967010;28;20027;-65
2021/12/20 10:41:33;;;;;;;9.65;1.38;;;;;;;13.42;44.27;103025.16;4998881;28;20030;-64
2021/12/20 10:44:02;;;;;;;6.32;1.45;;;;;;;13.48;43.92;103025.19;4998720;28;20051;-61
2021/12/20 10:46:33;;;;;;;9.25;1.63;;;;;;;13.90;43.22;103032.47;4982369;28;20037;-66
2021/12/20 10:49:08;;;;;;;4.15;0.95;;;;;;;14.18;41.81;103022.88;4992348;28;20109;-63
2021/12/20 10:51:39;;;;;;;7.90;1.38;;;;;;;15.02;40.93;103031.66;4979956;28;20018;-63
2021/12/20 10:54:10;;;;;;;9.27;1.65;;;;;;;15.11;40.29;103034.69;4993492;28;20026;-63
2021/12/20 10:56:46;;;;;;;9.25;1.23;;;;;;;15.09;41.11;103033.31;4984653;28;20037;-63
2021/12/20 10:59:12;;;;;;;11.50;2.20;;;;;;;15.07;40.71;103024.47;4997598;28;20030;-64
2021/12/20 11:04:25;;;;;;;15.02;1.90;;;;;;;15.23;40.80;103020.56;4995583;28;20098;-65
2021/12/20 11:09:05;;;;;;;7.53;1.20;;;;;;;15.22;40.96;103014.22;4997409;28;20054;-63
2021/12/20 11:09:52;;;;;;;9.57;2.08;;;;;;;15.10;40.90;103023.94;5007897;28;20110;-62
2021/12/20 11:12:31;;;;;;;8.07;1.52;;;;;;;15.26;40.22;103021.94;4983193;28;20089;-66
2021/12/20 11:15:08;;;;;;;10.88;1.50;;;;;;;14.85;41.73;103012.63;4995702;28;20022;-63
2021/12/20 11:17:36;;;;;;;10.75;1.80;;;;;;;13.50;43.81;103018.31;4995341;28;20379;-64
2021/12/20 11:20:02;;;;;;;9.75;1.20;;;;;;;13.08;44.99;103024.72;4995663;28;20076;-66
2021/12/20 11:22:31;;;;;;;7.97;1.48;;;;;;;13.39;45.11;103024.88;4996865;28;20118;-62
2021/12/20 11:25:00;;;;;;;8.43;1.45;;;;;;;14.49;41.92;103020.09;5000209;28;20022;-66
2021/12/20 11:27:39;;;;;;;6.90;1.50;;;;;;;12.51;46.61;103020.75;5001798;28;20047;-64
2021/12/20 11:30:10;;;;;;;8.55;1.30;;;;;;;12.58;46.69;103017.75;4995611;28;20019;-63
2021/12/20 11:32:36;;;;;;;6.78;1.38;;;;;;;12.24;47.78;103029.88;5000054;28;20107;-61
2021/12/20 11:35:02;;;;;;;10.30;1.70;;;;;;;12.70;45.93;103013.72;5002428;28;20078;-65
2021/12/20 11:37:28;;;;;;;6.40;1.02;;;;;;;14.02;41.77;103010.19;4983420;28;20045;-63
2021/12/20 11:39:58;;;;;;;2.13;0.50;;;;;;;12.45;41.20;103013.53;4963910;28;20041;-65
2021/12/20 11:42:25;;;;;;;5.63;1.05;;;;;;;13.90;40.26;103005.75;5003275;28;20086;-64